createdAt,value
2018-05-31T00:02:04.042Z,65.98
2018-05-31T00:04:31.532Z,64.19
2018-05-31T00:06:58.995Z,63.03
2018-05-31T00:09:26.475Z,63.00
2018-05-31T00:11:53.961Z,65.63
2018-05-31T00:14:21.430Z,65.10
2018-05-31T00:16:48.882Z,64.60
2018-05-31T00:19:16.356Z,62.51
2018-05-31T00:21:43.863Z,62.04
2018-05-31T00:24:11.331Z,62.29
2018-05-31T00:26:38.780Z,63.16
2018-05-31T00:29:06.247Z,62.08
2018-05-31T00:31:33.697Z,62.57
2018-05-31T00:34:01.142Z,63.09
2018-05-31T00:36:28.626Z,64.74
2018-05-31T00:38:56.070Z,64.99
2018-05-31T00:41:23.569Z,64.18
2018-05-31T00:43:51.018Z,64.05
2018-05-31T00:46:18.461Z,63.81
2018-05-31T00:48:45.941Z,63.82
2018-05-31T00:51:13.398Z,65.37
2018-05-31T00:53:40.945Z,65.15
2018-05-31T00:56:17.266Z,64.58
2018-05-31T00:58:44.737Z,63.83
2018-05-31T01:01:12.201Z,62.50
2018-05-31T01:03:39.661Z,63.67
2018-05-31T01:06:07.149Z,64.56
2018-05-31T01:08:34.805Z,64.96
2018-05-31T01:11:02.265Z,66.28
2018-05-31T01:13:29.729Z,66.42
2018-05-31T01:15:57.289Z,66.29
2018-05-31T01:18:24.778Z,65.97
2018-05-31T01:20:52.293Z,65.09
2018-05-31T01:23:19.766Z,66.71
2018-05-31T01:25:47.230Z,66.59
2018-05-31T01:28:14.697Z,65.56
2018-05-31T01:30:42.194Z,66.30
2018-05-31T01:33:09.645Z,66.46
2018-05-31T01:35:37.134Z,66.88
2018-05-31T01:38:16.360Z,66.82
2018-05-31T01:40:43.811Z,65.62
2018-05-31T01:43:11.284Z,66.14
2018-05-31T01:45:38.930Z,66.09
2018-05-31T01:48:06.385Z,65.95
2018-05-31T01:50:33.848Z,63.81
2018-05-31T01:53:01.322Z,66.04
2018-05-31T01:55:28.808Z,65.30
2018-05-31T01:57:56.305Z,66.30
2018-05-31T02:00:23.757Z,65.61
2018-05-31T02:02:52.331Z,66.00
2018-05-31T02:05:19.830Z,65.82
2018-05-31T02:07:47.310Z,66.91
2018-05-31T02:10:14.758Z,68.08
2018-05-31T02:12:42.234Z,68.16
2018-05-31T02:15:09.677Z,67.77
2018-05-31T02:17:42.075Z,67.06
2018-05-31T02:20:09.992Z,66.30
2018-05-31T02:22:37.629Z,65.38
2018-05-31T02:25:05.160Z,65.58
2018-05-31T02:27:32.629Z,66.72
2018-05-31T02:30:00.112Z,66.64
2018-05-31T02:32:27.569Z,65.92
2018-05-31T02:34:55.027Z,66.45
2018-05-31T02:37:22.514Z,66.08
2018-05-31T02:39:50.066Z,66.61
2018-05-31T02:42:17.517Z,65.35
2018-05-31T02:44:45.034Z,65.91
2018-05-31T02:47:12.473Z,66.88
2018-05-31T02:49:39.928Z,68.21
2018-05-31T02:52:07.455Z,68.88
2018-05-31T02:54:34.920Z,67.72
2018-05-31T02:57:02.416Z,66.78
2018-05-31T02:59:29.896Z,68.19
2018-05-31T03:01:57.358Z,67.64
2018-05-31T03:04:24.833Z,68.95
2018-05-31T03:06:52.292Z,68.95
2018-05-31T03:09:19.735Z,66.98
2018-05-31T03:11:47.205Z,67.41
2018-05-31T03:14:14.683Z,66.30
2018-05-31T03:16:42.170Z,67.08
2018-05-31T03:19:09.678Z,66.65
2018-05-31T03:21:37.186Z,67.02
2018-05-31T03:24:04.645Z,68.69
2018-05-31T03:26:32.177Z,69.90
2018-05-31T03:28:59.650Z,66.89
2018-05-31T03:31:27.455Z,69.08
2018-05-31T03:33:54.947Z,69.99
2018-05-31T03:36:22.493Z,69.41
2018-05-31T03:38:49.955Z,69.98
2018-05-31T03:41:17.418Z,70.23
2018-05-31T03:43:44.873Z,70.45
2018-05-31T03:46:12.340Z,71.08
2018-05-31T03:48:39.843Z,68.73
2018-05-31T03:51:07.329Z,69.54
2018-05-31T03:53:34.780Z,70.17
2018-05-31T03:56:02.255Z,68.53
2018-05-31T03:58:29.721Z,66.83
2018-05-31T04:00:57.185Z,67.39
2018-05-31T04:03:24.669Z,64.74
2018-05-31T04:05:52.169Z,63.16
2018-05-31T04:08:19.637Z,62.73
2018-05-31T04:10:47.087Z,62.55
2018-05-31T04:13:14.554Z,62.18
2018-05-31T04:15:42.030Z,63.67
2018-05-31T04:18:09.561Z,64.96
2018-05-31T04:20:37.053Z,64.46
2018-05-31T04:23:04.501Z,65.05
2018-05-31T04:25:31.998Z,65.14
2018-05-31T04:27:59.485Z,64.38
2018-05-31T04:30:26.947Z,64.65
2018-05-31T04:32:54.385Z,63.91
2018-05-31T04:35:21.846Z,63.76
2018-05-31T04:37:49.351Z,63.53
2018-05-31T04:40:16.833Z,64.63
2018-05-31T04:42:44.333Z,64.13
2018-05-31T04:45:11.799Z,63.14
2018-05-31T04:47:39.249Z,63.18
2018-05-31T04:50:06.715Z,63.87
2018-05-31T04:52:34.163Z,63.50
2018-05-31T04:55:01.630Z,64.32
2018-05-31T04:57:29.083Z,63.56
2018-05-31T04:59:56.520Z,63.21
2018-05-31T05:02:23.990Z,63.98
2018-05-31T05:04:51.456Z,62.97
2018-05-31T05:07:18.924Z,63.23
2018-05-31T05:09:46.413Z,63.13
2018-05-31T05:12:13.879Z,60.38
2018-05-31T05:14:41.353Z,60.76
2018-05-31T05:17:08.817Z,62.25
2018-05-31T05:19:36.284Z,61.53
2018-05-31T05:22:03.760Z,61.44
2018-05-31T05:24:31.241Z,60.72
2018-05-31T05:26:58.695Z,59.45
2018-05-31T05:29:26.165Z,58.50
2018-05-31T05:31:53.640Z,58.84
2018-05-31T05:34:21.103Z,57.87
2018-05-31T05:36:48.606Z,59.23
2018-05-31T05:39:16.074Z,59.70
2018-05-31T05:41:43.548Z,60.81
2018-05-31T05:44:11.030Z,60.86
2018-05-31T05:46:38.534Z,59.87
2018-05-31T05:49:06.008Z,59.10
2018-05-31T05:51:33.464Z,58.91
2018-05-31T05:54:01.026Z,58.00
2018-05-31T05:56:28.533Z,57.30
2018-05-31T05:58:55.933Z,57.20
2018-05-31T06:01:23.409Z,55.53
2018-05-31T06:03:50.876Z,54.62
2018-05-31T06:06:18.338Z,57.58
2018-05-31T06:08:45.844Z,57.93
2018-05-31T06:11:13.314Z,57.28
2018-05-31T06:13:40.802Z,57.43
2018-05-31T06:16:08.272Z,58.22
2018-05-31T06:18:35.719Z,58.49
2018-05-31T06:21:03.195Z,58.74
2018-05-31T06:23:30.691Z,57.62
2018-05-31T06:25:58.167Z,56.42
2018-05-31T06:28:25.649Z,55.53
2018-05-31T06:30:53.121Z,56.74
2018-05-31T06:33:20.592Z,56.55
2018-05-31T06:35:48.059Z,57.14
2018-05-31T06:38:15.533Z,58.18
2018-05-31T06:40:42.981Z,55.98
2018-05-31T06:43:10.453Z,56.69
2018-05-31T06:45:37.916Z,54.64
2018-05-31T06:48:05.357Z,55.96
2018-05-31T06:50:32.829Z,54.79
2018-05-31T06:53:00.305Z,55.38
2018-05-31T06:55:27.783Z,55.23
2018-05-31T06:57:55.233Z,55.46
2018-05-31T07:00:22.702Z,54.09
2018-05-31T07:02:50.797Z,53.30
2018-05-31T07:05:18.241Z,54.52
2018-05-31T07:07:45.713Z,53.54
2018-05-31T07:10:13.217Z,51.64
2018-05-31T07:12:40.737Z,52.88
2018-05-31T07:15:08.180Z,51.12
2018-05-31T07:17:35.648Z,53.00
2018-05-31T07:20:03.106Z,53.27
2018-05-31T07:22:30.579Z,51.25
2018-05-31T07:24:58.042Z,52.00
2018-05-31T07:27:25.508Z,50.98
2018-05-31T07:29:53.094Z,51.38
2018-05-31T07:32:20.538Z,50.57
2018-05-31T07:34:48.015Z,50.58
2018-05-31T07:37:15.473Z,51.26
2018-05-31T07:39:43.028Z,52.63
2018-05-31T07:42:10.524Z,51.24
2018-05-31T07:44:37.964Z,52.24
2018-05-31T07:47:05.424Z,53.09
2018-05-31T07:49:32.909Z,53.12
2018-05-31T07:52:00.422Z,53.93
2018-05-31T07:54:27.883Z,53.68
2018-05-31T07:56:55.401Z,52.92
2018-05-31T07:59:22.918Z,51.87
2018-05-31T08:01:50.407Z,53.19
2018-05-31T08:04:17.859Z,52.39
2018-05-31T08:06:45.344Z,51.39
2018-05-31T08:09:12.811Z,51.71
2018-05-31T08:11:40.244Z,51.63
2018-05-31T08:14:07.746Z,51.54
2018-05-31T08:16:35.285Z,50.25
2018-05-31T08:19:02.763Z,51.99
2018-05-31T08:21:30.301Z,49.54
2018-05-31T08:23:57.779Z,51.60
2018-05-31T08:26:25.232Z,50.08
2018-05-31T08:28:52.682Z,49.75
2018-05-31T08:31:20.164Z,48.15
2018-05-31T08:33:47.620Z,49.73
2018-05-31T08:36:15.086Z,49.63
2018-05-31T08:38:42.553Z,49.28
2018-05-31T08:41:09.998Z,48.21
2018-05-31T08:43:37.504Z,47.47
2018-05-31T08:46:04.959Z,46.29
2018-05-31T08:48:32.469Z,47.45
2018-05-31T08:50:59.959Z,46.17
2018-05-31T08:53:27.430Z,45.22
2018-05-31T08:55:54.889Z,44.93
2018-05-31T08:58:22.781Z,42.37
2018-05-31T09:00:50.235Z,44.51
2018-05-31T09:03:17.773Z,43.44
2018-05-31T09:05:45.213Z,43.16
2018-05-31T09:08:12.681Z,40.68
2018-05-31T09:10:40.174Z,38.89
2018-05-31T09:13:07.732Z,41.24
2018-05-31T09:15:35.185Z,41.20
2018-05-31T09:18:02.642Z,41.85
2018-05-31T09:20:30.102Z,44.65
2018-05-31T09:22:57.623Z,46.33
2018-05-31T09:25:25.074Z,44.38
2018-05-31T09:27:52.661Z,42.12
2018-05-31T09:30:20.154Z,41.98
2018-05-31T09:32:47.636Z,39.57
2018-05-31T09:35:15.079Z,40.91
2018-05-31T09:37:42.548Z,38.92
2018-05-31T09:40:10.145Z,38.97
2018-05-31T09:42:37.947Z,40.29
2018-05-31T09:45:05.467Z,38.53
2018-05-31T09:47:32.957Z,46.05
2018-05-31T09:50:00.507Z,39.48
2018-05-31T09:52:27.977Z,43.93
2018-05-31T09:54:55.430Z,39.55
2018-05-31T09:57:22.919Z,40.35
2018-05-31T09:59:50.397Z,41.15
2018-05-31T10:02:17.839Z,37.75
2018-05-31T10:04:45.286Z,36.37
2018-05-31T10:07:12.722Z,37.28
2018-05-31T10:09:40.224Z,39.61
2018-05-31T10:12:08.512Z,39.38
2018-05-31T10:14:35.966Z,36.92
2018-05-31T10:17:03.413Z,36.70
2018-05-31T10:19:30.887Z,36.24
2018-05-31T10:21:58.321Z,35.76
2018-05-31T10:24:25.770Z,36.77
2018-05-31T10:26:53.237Z,36.28
2018-05-31T10:29:20.694Z,36.01
2018-05-31T10:31:48.480Z,37.73
2018-05-31T10:34:15.978Z,33.78
2018-05-31T10:36:43.488Z,34.85
2018-05-31T10:39:11.198Z,37.31
2018-05-31T10:41:38.682Z,36.17
2018-05-31T10:44:06.163Z,34.71
2018-05-31T10:46:33.643Z,36.34
2018-05-31T10:49:01.071Z,35.82
2018-05-31T10:51:28.533Z,33.69
2018-05-31T10:53:56.025Z,33.98
2018-05-31T10:56:23.505Z,33.41
2018-05-31T10:58:50.994Z,32.86
2018-05-31T11:01:18.505Z,31.48
2018-05-31T11:03:46.144Z,33.59
2018-05-31T11:06:13.625Z,33.25
2018-05-31T11:08:41.125Z,30.26
2018-05-31T11:11:08.598Z,30.92
2018-05-31T11:13:36.042Z,35.28
2018-05-31T11:16:03.496Z,37.50
2018-05-31T11:18:30.990Z,35.64
2018-05-31T11:20:58.443Z,30.60
2018-05-31T11:23:25.889Z,31.94
2018-05-31T11:25:53.367Z,31.25
2018-05-31T11:28:20.926Z,30.51
2018-05-31T11:30:48.401Z,31.18
2018-05-31T11:33:15.928Z,29.85
2018-05-31T11:35:43.375Z,32.36
2018-05-31T11:38:10.845Z,31.50
2018-05-31T11:40:38.272Z,28.78
2018-05-31T11:43:05.729Z,32.27
2018-05-31T11:45:33.201Z,31.92
2018-05-31T11:48:00.674Z,29.01
2018-05-31T11:50:28.169Z,28.50
2018-05-31T11:52:55.629Z,26.37
2018-05-31T11:55:23.088Z,24.69
2018-05-31T11:57:50.564Z,26.58
2018-05-31T12:00:18.028Z,22.51
2018-05-31T12:02:45.488Z,22.41
2018-05-31T12:05:13.042Z,21.75
2018-05-31T12:07:40.547Z,20.71
2018-05-31T12:10:08.008Z,18.28
2018-05-31T12:12:35.533Z,18.16
2018-05-31T12:15:03.004Z,19.21
2018-05-31T12:17:30.500Z,18.33
2018-05-31T12:19:57.942Z,16.86
2018-05-31T12:22:25.436Z,16.79
2018-05-31T12:24:52.912Z,17.47
2018-05-31T12:27:20.359Z,16.65
2018-05-31T12:29:47.824Z,16.14
2018-05-31T12:32:15.296Z,16.58
2018-05-31T12:34:42.776Z,16.55
2018-05-31T12:37:10.223Z,16.41
2018-05-31T12:39:37.793Z,14.83
2018-05-31T12:42:05.248Z,15.89
2018-05-31T12:44:32.860Z,15.24
2018-05-31T12:47:00.384Z,13.67
2018-05-31T12:49:27.890Z,14.84
2018-05-31T12:51:55.381Z,14.25
2018-05-31T12:54:22.855Z,14.65
2018-05-31T12:56:50.405Z,14.38
2018-05-31T12:59:17.961Z,13.07
2018-05-31T13:01:45.418Z,13.90
2018-05-31T13:06:45.031Z,13.63
2018-05-31T13:09:12.485Z,12.22
2018-05-31T13:11:39.921Z,12.73
2018-05-31T13:14:07.379Z,12.73
2018-05-31T13:16:34.895Z,12.88
2018-05-31T13:19:02.338Z,12.41
2018-05-31T13:21:29.817Z,15.00
2018-05-31T13:23:57.325Z,16.96
2018-05-31T13:26:24.792Z,20.78
2018-05-31T13:28:52.282Z,25.12
2018-05-31T13:31:19.722Z,27.86
2018-05-31T13:33:47.161Z,26.97
2018-05-31T13:36:14.605Z,22.91
2018-05-31T13:38:42.115Z,20.15
2018-05-31T13:41:09.563Z,18.07
2018-05-31T13:43:37.021Z,18.33
2018-05-31T13:46:04.469Z,17.53
2018-05-31T13:48:31.927Z,15.62
2018-05-31T13:50:59.384Z,15.85
2018-05-31T13:53:26.816Z,16.98
2018-05-31T13:55:54.255Z,19.20
2018-05-31T13:58:21.729Z,19.26
2018-05-31T14:00:49.376Z,20.42
2018-05-31T14:03:16.864Z,19.93
2018-05-31T14:05:44.321Z,22.77
2018-05-31T14:08:11.757Z,22.83
2018-05-31T14:10:39.240Z,22.48
2018-05-31T14:13:06.682Z,22.87
2018-05-31T14:15:34.118Z,22.84
2018-05-31T14:18:01.576Z,21.77
2018-05-31T14:20:29.028Z,20.62
2018-05-31T14:22:56.490Z,22.62
2018-05-31T14:25:23.948Z,23.95
2018-05-31T14:27:51.382Z,26.44
2018-05-31T14:30:18.855Z,29.07
2018-05-31T14:32:46.302Z,26.86
2018-05-31T14:35:13.759Z,25.89
2018-05-31T14:37:41.234Z,24.28
2018-05-31T14:40:08.675Z,24.03
2018-05-31T14:42:36.157Z,22.17
2018-05-31T14:45:03.610Z,21.27
2018-05-31T14:47:31.076Z,22.40
2018-05-31T14:49:58.569Z,22.92
2018-05-31T14:52:26.021Z,24.79
2018-05-31T14:54:53.495Z,27.47
2018-05-31T14:57:20.928Z,28.92
2018-05-31T14:59:48.455Z,30.54
2018-05-31T15:02:15.905Z,31.15
2018-05-31T15:04:43.360Z,31.17
2018-05-31T15:07:10.804Z,30.40
2018-05-31T15:09:38.228Z,30.07
2018-05-31T15:12:05.701Z,27.29
2018-05-31T15:14:33.155Z,27.82
2018-05-31T15:17:00.702Z,27.31
2018-05-31T15:19:28.144Z,28.91
2018-05-31T15:21:55.621Z,29.50
2018-05-31T15:24:23.119Z,29.05
2018-05-31T15:26:50.566Z,28.19
2018-05-31T15:29:18.000Z,28.85
2018-05-31T15:31:45.477Z,29.12
2018-05-31T15:34:12.961Z,29.17
2018-05-31T15:36:40.444Z,31.21
2018-05-31T15:39:07.952Z,32.39
2018-05-31T15:41:35.429Z,32.40
2018-05-31T15:44:02.906Z,33.04
2018-05-31T15:46:30.410Z,33.12
2018-05-31T15:48:57.838Z,33.40
2018-05-31T15:51:25.329Z,34.67
2018-05-31T15:53:52.806Z,33.12
2018-05-31T15:56:20.284Z,35.20
2018-05-31T15:58:47.722Z,37.51
2018-05-31T16:01:15.226Z,38.01
2018-05-31T16:03:42.785Z,38.24
2018-05-31T16:06:10.343Z,38.62
2018-05-31T16:08:37.797Z,38.25
2018-05-31T16:11:05.281Z,37.89
2018-05-31T16:13:32.730Z,39.49
2018-05-31T16:16:00.314Z,38.85
2018-05-31T16:18:27.777Z,39.71
2018-05-31T16:20:55.236Z,39.74
2018-05-31T16:23:22.731Z,40.08
2018-05-31T16:25:50.183Z,40.98
2018-05-31T16:28:17.739Z,40.81
2018-05-31T16:30:45.204Z,41.14
2018-05-31T16:33:12.677Z,40.64
2018-05-31T16:35:40.244Z,42.02
2018-05-31T16:38:07.813Z,39.72
2018-05-31T16:40:35.309Z,40.21
2018-05-31T16:43:02.756Z,39.09
2018-05-31T16:45:30.237Z,37.76
2018-05-31T16:47:57.729Z,40.07
2018-05-31T16:50:25.194Z,37.71
2018-05-31T16:52:52.737Z,38.32
2018-05-31T16:55:20.241Z,35.64
2018-05-31T16:57:47.725Z,31.30
2018-05-31T17:00:15.196Z,29.93
2018-05-31T17:02:42.696Z,28.26
2018-05-31T17:05:10.237Z,28.55
2018-05-31T17:07:37.774Z,29.95
2018-05-31T17:10:05.209Z,30.20
2018-05-31T17:12:32.653Z,28.18
2018-05-31T17:15:00.183Z,29.55
2018-05-31T17:17:27.628Z,28.71
2018-05-31T17:19:55.174Z,29.95
2018-05-31T17:22:22.655Z,28.81
2018-05-31T17:24:50.115Z,28.87
2018-05-31T17:27:17.595Z,29.22
2018-05-31T17:29:45.069Z,29.27
2018-05-31T17:32:12.523Z,29.22
2018-05-31T17:34:40.012Z,28.40
2018-05-31T17:37:07.452Z,27.39
2018-05-31T17:39:34.886Z,27.90
2018-05-31T17:42:02.370Z,26.88
2018-05-31T17:44:29.842Z,27.30
2018-05-31T17:46:57.376Z,29.47
2018-05-31T17:49:24.838Z,31.23
2018-05-31T17:51:52.289Z,32.95
2018-05-31T17:54:19.741Z,37.27
2018-05-31T17:56:47.224Z,37.57
2018-05-31T17:59:14.665Z,39.58
2018-05-31T18:01:42.138Z,40.56
2018-05-31T18:04:09.612Z,42.15
2018-05-31T18:06:37.067Z,42.99
2018-05-31T18:09:05.118Z,43.50
2018-05-31T18:11:32.575Z,45.55
2018-05-31T18:14:00.047Z,46.20
2018-05-31T18:16:27.516Z,44.91
2018-05-31T18:18:55.097Z,49.15
2018-05-31T18:21:22.560Z,51.01
2018-05-31T18:23:50.049Z,52.11
2018-05-31T18:26:17.551Z,52.54
2018-05-31T18:28:45.003Z,50.71
2018-05-31T18:31:12.544Z,46.63
2018-05-31T18:33:40.010Z,50.32
2018-05-31T18:36:07.484Z,50.73
2018-05-31T18:38:35.050Z,49.90
2018-05-31T18:41:02.496Z,49.10
2018-05-31T18:43:30.060Z,50.46
2018-05-31T18:45:57.521Z,49.89
2018-05-31T18:48:25.057Z,52.70
2018-05-31T18:50:52.636Z,50.42
2018-05-31T18:53:20.069Z,50.87
2018-05-31T18:55:47.519Z,50.07
2018-05-31T18:58:14.954Z,50.07
2018-05-31T19:00:43.085Z,51.37
2018-05-31T19:03:10.585Z,50.20
2018-05-31T19:05:38.062Z,51.98
2018-05-31T19:08:05.551Z,50.30
2018-05-31T19:10:33.052Z,49.38
2018-05-31T19:13:06.145Z,51.56
2018-05-31T19:15:33.647Z,51.84
2018-05-31T19:18:01.115Z,51.92
2018-05-31T19:20:30.205Z,50.71
2018-05-31T19:22:57.668Z,53.13
2018-05-31T19:25:25.124Z,51.51
2018-05-31T19:27:52.563Z,51.90
2018-05-31T19:30:25.741Z,52.28
2018-05-31T19:32:53.204Z,53.85
2018-05-31T19:35:26.395Z,53.02
2018-05-31T19:37:53.892Z,52.82
2018-05-31T19:40:21.374Z,53.14
2018-05-31T19:42:54.551Z,52.53
2018-05-31T19:45:22.002Z,52.64
2018-05-31T19:47:49.477Z,52.78
2018-05-31T19:50:16.955Z,53.01
2018-05-31T19:52:50.108Z,53.20
2018-05-31T19:55:17.666Z,52.96
2018-05-31T19:57:50.934Z,52.97
2018-05-31T20:00:24.091Z,53.19
2018-05-31T20:02:57.086Z,53.46
2018-05-31T20:05:24.909Z,54.24
2018-05-31T20:07:52.345Z,54.13
2018-05-31T20:10:19.841Z,54.73
2018-05-31T20:12:47.287Z,55.76
2018-05-31T20:15:14.730Z,54.17
2018-05-31T20:17:42.180Z,55.33
2018-05-31T20:20:09.687Z,56.40
2018-05-31T20:22:37.146Z,55.30
2018-05-31T20:25:04.614Z,55.25
2018-05-31T20:27:32.309Z,56.17
2018-05-31T20:29:59.800Z,54.37
2018-05-31T20:32:27.337Z,56.42
2018-05-31T20:34:54.937Z,56.09
2018-05-31T20:37:22.431Z,56.84
2018-05-31T20:39:49.892Z,57.15
2018-05-31T20:42:17.339Z,56.89
2018-05-31T20:44:44.813Z,57.38
2018-05-31T20:47:12.284Z,58.19
2018-05-31T20:49:39.755Z,58.36
2018-05-31T20:52:07.429Z,58.56
2018-05-31T20:54:34.874Z,58.98
2018-05-31T20:57:02.459Z,58.05
2018-05-31T20:59:29.954Z,57.10
2018-05-31T21:01:57.406Z,57.25
2018-05-31T21:04:24.884Z,56.60
2018-05-31T21:06:52.342Z,57.35
2018-05-31T21:09:19.803Z,57.59
2018-05-31T21:11:47.346Z,57.91
2018-05-31T21:14:14.783Z,56.54
2018-05-31T21:16:43.093Z,55.45
2018-05-31T21:19:10.576Z,57.53
2018-05-31T21:21:38.108Z,57.34
2018-05-31T21:24:05.680Z,57.74
2018-05-31T21:26:33.137Z,56.96
2018-05-31T21:29:02.471Z,57.41
2018-05-31T21:31:31.963Z,56.89
2018-05-31T21:33:59.539Z,55.61
2018-05-31T21:36:27.105Z,56.69
2018-05-31T21:38:54.537Z,57.40
2018-05-31T21:41:21.992Z,58.56
2018-05-31T21:43:50.292Z,57.70
2018-05-31T21:46:18.288Z,55.62
2018-05-31T21:48:45.965Z,56.54
2018-05-31T21:51:13.456Z,56.46
2018-05-31T21:53:44.361Z,54.81
2018-05-31T21:56:12.107Z,57.11
2018-05-31T21:58:40.662Z,57.75
2018-05-31T22:01:08.238Z,57.34
2018-05-31T22:03:36.802Z,55.41
2018-05-31T22:06:04.302Z,52.44
2018-05-31T22:08:31.765Z,54.56
2018-05-31T22:10:59.310Z,48.93
2018-05-31T22:13:27.727Z,54.60
2018-05-31T22:15:56.416Z,54.77
2018-05-31T22:18:23.955Z,58.03
2018-05-31T22:20:53.650Z,69.14
2018-05-31T22:23:22.301Z,84.96
2018-05-31T22:25:49.777Z,91.98
2018-05-31T22:28:18.480Z,93.96
2018-05-31T22:30:46.292Z,95.15
2018-05-31T22:33:14.027Z,95.44
2018-05-31T22:35:44.060Z,96.05
2018-05-31T22:38:12.742Z,96.26
2018-05-31T22:40:41.877Z,95.66
2018-05-31T22:43:09.479Z,97.03
2018-05-31T22:45:38.173Z,96.00
2018-05-31T22:48:06.421Z,96.10
2018-05-31T22:50:34.435Z,95.45
2018-05-31T22:53:02.067Z,95.90
2018-05-31T22:55:29.629Z,95.04
2018-05-31T22:57:57.138Z,94.72
2018-05-31T23:00:24.772Z,94.57
2018-05-31T23:02:54.095Z,95.23
2018-05-31T23:05:22.739Z,94.33
2018-05-31T23:07:51.401Z,93.74
2018-05-31T23:10:18.983Z,93.72
2018-05-31T23:12:46.431Z,94.53
2018-05-31T23:15:13.959Z,93.89
2018-05-31T23:17:41.423Z,94.58
2018-05-31T23:20:08.901Z,94.47
2018-05-31T23:22:37.037Z,92.77
2018-05-31T23:25:05.367Z,95.31
2018-05-31T23:27:33.583Z,94.46
2018-05-31T23:30:01.332Z,96.28
2018-05-31T23:32:28.971Z,93.18
2018-05-31T23:34:56.926Z,93.39
2018-05-31T23:37:24.606Z,95.93
2018-05-31T23:39:52.130Z,93.42
2018-05-31T23:42:19.735Z,90.95
2018-05-31T23:44:47.205Z,92.47
2018-05-31T23:47:16.124Z,90.00
2018-05-31T23:49:43.797Z,85.08
2018-05-31T23:52:11.246Z,86.54
2018-05-31T23:54:38.700Z,89.96
2018-05-31T23:57:06.278Z,89.28
2018-05-31T23:59:33.718Z,90.29
